sensor_id;sensor_type;location;lat;lon;timestamp;P1;durP1;ratioP1;P2;durP2;ratioP2
30096;SDS011;16915;51.466;3.610;2022-10-16T09:13:02;9.40;;;1.38;;
30096;SDS011;16915;51.466;3.610;2022-10-16T09:18:51;5.35;;;1.55;;
30096;SDS011;16915;51.466;3.610;2022-10-16T09:21:54;7.05;;;1.30;;
30096;SDS011;16915;51.466;3.610;2022-10-16T09:24:21;7.97;;;1.48;;
30096;SDS011;16915;51.466;3.610;2022-10-16T09:26:50;4.55;;;1.15;;
30096;SDS011;16915;51.466;3.610;2022-10-16T09:29:16;5.28;;;1.30;;
30096;SDS011;16915;51.466;3.610;2022-10-16T09:31:45;11.23;;;1.52;;
30096;SDS011;16915;51.466;3.610;2022-10-16T09:34:30;7.20;;;1.30;;
30096;SDS011;16915;51.466;3.610;2022-10-16T09:36:58;10.20;;;1.30;;
30096;SDS011;16915;51.466;3.610;2022-10-16T09:39:25;6.22;;;1.13;;
30096;SDS011;16915;51.466;3.610;2022-10-16T09:41:57;7.25;;;1.05;;
30096;SDS011;16915;51.466;3.610;2022-10-16T09:44:29;8.65;;;1.48;;
30096;SDS011;16915;51.466;3.610;2022-10-16T09:47:12;8.25;;;1.80;;
30096;SDS011;16915;51.466;3.610;2022-10-16T09:49:53;5.22;;;1.00;;
30096;SDS011;16915;51.466;3.610;2022-10-16T09:52:19;7.63;;;1.20;;
30096;SDS011;16915;51.466;3.610;2022-10-16T09:55:02;9.65;;;1.42;;
30096;SDS011;16915;51.466;3.610;2022-10-16T09:57:48;8.82;;;1.30;;
30096;SDS011;16915;51.466;3.610;2022-10-16T10:00:18;5.00;;;1.30;;
30096;SDS011;16915;51.466;3.610;2022-10-16T10:02:44;8.05;;;1.23;;
30096;SDS011;16915;51.466;3.610;2022-10-16T10:05:28;4.95;;;1.38;;
30096;SDS011;16915;51.466;3.610;2022-10-16T10:07:55;8.20;;;1.42;;
30096;SDS011;16915;51.466;3.610;2022-10-16T10:10:32;6.07;;;1.10;;
30096;SDS011;16915;51.466;3.610;2022-10-16T10:13:01;6.65;;;1.20;;
30096;SDS011;16915;51.466;3.610;2022-10-16T10:15:27;6.25;;;1.48;;
30096;SDS011;16915;51.466;3.610;2022-10-16T10:17:58;5.82;;;1.50;;
30096;SDS011;16915;51.466;3.610;2022-10-16T10:22:53;5.70;;;1.27;;
30096;SDS011;16915;51.466;3.610;2022-10-16T10:31:08;7.25;;;1.30;;
30096;SDS011;16915;51.466;3.610;2022-10-16T10:33:58;8.30;;;1.60;;
30096;SDS011;16915;51.466;3.610;2022-10-16T10:39:05;8.60;;;1.80;;
30096;SDS011;16915;51.466;3.610;2022-10-16T10:42:00;6.60;;;1.70;;
30096;SDS011;16915;51.466;3.610;2022-10-16T10:50:28;6.63;;;1.25;;
30096;SDS011;16915;51.466;3.610;2022-10-16T11:01:20;7.82;;;1.45;;
30096;SDS011;16915;51.466;3.610;2022-10-16T11:04:06;8.73;;;1.40;;
30096;SDS011;16915;51.466;3.610;2022-10-16T11:06:43;4.72;;;1.00;;
30096;SDS011;16915;51.466;3.610;2022-10-16T11:20:26;6.68;;;1.50;;
30096;SDS011;16915;51.466;3.610;2022-10-16T11:23:29;8.00;;;1.58;;
30096;SDS011;16915;51.466;3.610;2022-10-16T11:26:17;5.53;;;1.23;;
30096;SDS011;16915;51.466;3.610;2022-10-16T11:28:50;7.10;;;1.50;;
30096;SDS011;16915;51.466;3.610;2022-10-16T11:36:57;6.90;;;1.70;;
30096;SDS011;16915;51.466;3.610;2022-10-16T11:39:33;7.20;;;1.48;;
30096;SDS011;16915;51.466;3.610;2022-10-16T11:42:01;7.97;;;1.50;;
30096;SDS011;16915;51.466;3.610;2022-10-16T11:47:48;10.93;;;1.63;;
30096;SDS011;16915;51.466;3.610;2022-10-16T11:53:31;5.20;;;1.02;;
30096;SDS011;16915;51.466;3.610;2022-10-16T12:03:35;8.57;;;1.55;;
30096;SDS011;16915;51.466;3.610;2022-10-16T12:09:04;9.00;;;1.35;;
30096;SDS011;16915;51.466;3.610;2022-10-16T12:11:35;9.25;;;1.50;;
30096;SDS011;16915;51.466;3.610;2022-10-16T12:16:59;7.90;;;1.83;;
30096;SDS011;16915;51.466;3.610;2022-10-16T12:19:28;10.65;;;1.80;;
30096;SDS011;16915;51.466;3.610;2022-10-16T12:21:59;7.50;;;1.30;;
30096;SDS011;16915;51.466;3.610;2022-10-16T12:27:02;8.70;;;1.77;;
30096;SDS011;16915;51.466;3.610;2022-10-16T12:29:37;9.95;;;1.83;;
30096;SDS011;16915;51.466;3.610;2022-10-16T12:32:05;13.23;;;1.98;;
30096;SDS011;16915;51.466;3.610;2022-10-16T12:34:49;10.98;;;2.25;;
30096;SDS011;16915;51.466;3.610;2022-10-16T12:37:20;11.90;;;2.17;;
30096;SDS011;16915;51.466;3.610;2022-10-16T12:39:49;7.85;;;1.95;;
30096;SDS011;16915;51.466;3.610;2022-10-16T12:44:52;13.77;;;1.98;;
30096;SDS011;16915;51.466;3.610;2022-10-16T12:47:23;9.13;;;1.70;;
30096;SDS011;16915;51.466;3.610;2022-10-16T12:50:23;12.10;;;2.15;;
30096;SDS011;16915;51.466;3.610;2022-10-16T12:52:51;9.50;;;1.53;;
30096;SDS011;16915;51.466;3.610;2022-10-16T12:55:18;11.73;;;1.58;;
30096;SDS011;16915;51.466;3.610;2022-10-16T13:00:39;8.23;;;1.73;;
30096;SDS011;16915;51.466;3.610;2022-10-16T13:06:00;9.77;;;1.85;;
30096;SDS011;16915;51.466;3.610;2022-10-16T13:12:15;6.63;;;1.10;;
30096;SDS011;16915;51.466;3.610;2022-10-16T13:14:46;8.80;;;1.73;;
30096;SDS011;16915;51.466;3.610;2022-10-16T13:29:02;7.82;;;1.30;;
30096;SDS011;16915;51.466;3.610;2022-10-16T13:31:29;8.60;;;1.50;;
30096;SDS011;16915;51.466;3.610;2022-10-16T13:33:57;6.63;;;1.48;;
30096;SDS011;16915;51.466;3.610;2022-10-16T13:36:28;7.80;;;1.90;;
30096;SDS011;16915;51.466;3.610;2022-10-16T13:39:11;6.20;;;1.08;;
30096;SDS011;16915;51.466;3.610;2022-10-16T13:41:42;4.78;;;1.08;;
30096;SDS011;16915;51.466;3.610;2022-10-16T13:44:18;9.38;;;1.30;;
30096;SDS011;16915;51.466;3.610;2022-10-16T13:46:45;6.88;;;1.35;;
30096;SDS011;16915;51.466;3.610;2022-10-16T13:49:15;14.13;;;1.77;;
30096;SDS011;16915;51.466;3.610;2022-10-16T13:51:53;8.57;;;1.38;;
30096;SDS011;16915;51.466;3.610;2022-10-16T13:54:20;7.35;;;1.25;;
30096;SDS011;16915;51.466;3.610;2022-10-16T13:56:46;9.43;;;1.33;;
30096;SDS011;16915;51.466;3.610;2022-10-16T13:59:32;8.98;;;1.60;;
30096;SDS011;16915;51.466;3.610;2022-10-16T14:01:59;7.60;;;1.63;;
30096;SDS011;16915;51.466;3.610;2022-10-16T14:04:31;5.72;;;1.40;;
30096;SDS011;16915;51.466;3.610;2022-10-16T14:06:58;7.78;;;1.52;;
30096;SDS011;16915;51.466;3.610;2022-10-16T14:09:24;3.45;;;1.05;;
30096;SDS011;16915;51.466;3.610;2022-10-16T14:11:57;10.35;;;1.40;;
30096;SDS011;16915;51.466;3.610;2022-10-16T14:14:26;6.47;;;1.45;;
30096;SDS011;16915;51.466;3.610;2022-10-16T14:17:05;4.55;;;1.20;;
30096;SDS011;16915;51.466;3.610;2022-10-16T14:19:34;6.28;;;1.10;;
30096;SDS011;16915;51.466;3.610;2022-10-16T14:22:00;4.57;;;1.08;;
30096;SDS011;16915;51.466;3.610;2022-10-16T14:26:55;7.43;;;1.20;;
30096;SDS011;16915;51.466;3.610;2022-10-16T14:29:22;8.80;;;1.50;;
30096;SDS011;16915;51.466;3.610;2022-10-16T14:32:05;4.32;;;1.17;;
30096;SDS011;16915;51.466;3.610;2022-10-16T14:34:52;3.05;;;0.95;;
30096;SDS011;16915;51.466;3.610;2022-10-16T14:37:25;4.70;;;0.98;;
30096;SDS011;16915;51.466;3.610;2022-10-16T14:39:53;5.72;;;1.10;;
30096;SDS011;16915;51.466;3.610;2022-10-16T14:42:28;5.45;;;1.02;;
30096;SDS011;16915;51.466;3.610;2022-10-16T14:44:55;10.45;;;1.60;;
30096;SDS011;16915;51.466;3.610;2022-10-16T14:47:22;6.00;;;1.20;;
30096;SDS011;16915;51.466;3.610;2022-10-16T14:49:51;8.27;;;1.48;;
30096;SDS011;16915;51.466;3.610;2022-10-16T14:52:20;9.63;;;1.58;;
30096;SDS011;16915;51.466;3.610;2022-10-16T14:54:52;6.80;;;1.52;;
30096;SDS011;16915;51.466;3.610;2022-10-16T14:57:20;4.57;;;0.93;;
30096;SDS011;16915;51.466;3.610;2022-10-16T14:59:48;5.25;;;1.30;;
30096;SDS011;16915;51.466;3.610;2022-10-16T15:04:44;3.70;;;1.00;;
30096;SDS011;16915;51.466;3.610;2022-10-16T15:07:10;5.22;;;1.10;;
30096;SDS011;16915;51.466;3.610;2022-10-16T15:09:36;3.60;;;0.90;;
30096;SDS011;16915;51.466;3.610;2022-10-16T15:12:01;7.55;;;1.42;;
30096;SDS011;16915;51.466;3.610;2022-10-16T15:14:27;2.97;;;1.00;;
30096;SDS011;16915;51.466;3.610;2022-10-16T15:16:53;5.60;;;1.40;;
30096;SDS011;16915;51.466;3.610;2022-10-16T15:19:18;7.35;;;1.90;;
30096;SDS011;16915;51.466;3.610;2022-10-16T15:21:44;6.22;;;1.77;;
30096;SDS011;16915;51.466;3.610;2022-10-16T15:24:11;6.40;;;1.30;;
30096;SDS011;16915;51.466;3.610;2022-10-16T15:26:38;8.32;;;1.40;;
30096;SDS011;16915;51.466;3.610;2022-10-16T15:29:04;5.75;;;1.50;;
30096;SDS011;16915;51.466;3.610;2022-10-16T15:31:30;7.60;;;1.52;;
30096;SDS011;16915;51.466;3.610;2022-10-16T15:33:55;4.55;;;1.50;;
30096;SDS011;16915;51.466;3.610;2022-10-16T15:36:44;3.50;;;1.17;;
30096;SDS011;16915;51.466;3.610;2022-10-16T15:39:17;7.20;;;1.42;;
30096;SDS011;16915;51.466;3.610;2022-10-16T15:41:45;5.82;;;1.33;;
30096;SDS011;16915;51.466;3.610;2022-10-16T15:44:18;6.95;;;1.25;;
30096;SDS011;16915;51.466;3.610;2022-10-16T15:46:44;3.85;;;1.13;;
30096;SDS011;16915;51.466;3.610;2022-10-16T15:49:11;9.15;;;1.40;;
30096;SDS011;16915;51.466;3.610;2022-10-16T15:51:40;5.55;;;1.42;;
30096;SDS011;16915;51.466;3.610;2022-10-16T15:54:09;5.40;;;1.30;;
30096;SDS011;16915;51.466;3.610;2022-10-16T15:56:35;3.35;;;1.08;;
30096;SDS011;16915;51.466;3.610;2022-10-16T15:59:02;3.60;;;1.17;;
30096;SDS011;16915;51.466;3.610;2022-10-16T16:01:28;1.92;;;0.90;;
30096;SDS011;16915;51.466;3.610;2022-10-16T16:04:00;5.78;;;0.90;;
30096;SDS011;16915;51.466;3.610;2022-10-16T16:06:26;6.97;;;1.00;;
30096;SDS011;16915;51.466;3.610;2022-10-16T16:08:52;3.83;;;0.90;;
30096;SDS011;16915;51.466;3.610;2022-10-16T16:11:18;3.80;;;0.73;;
30096;SDS011;16915;51.466;3.610;2022-10-16T16:13:44;1.70;;;0.73;;
30096;SDS011;16915;51.466;3.610;2022-10-16T16:16:14;1.38;;;0.60;;
30096;SDS011;16915;51.466;3.610;2022-10-16T16:21:08;4.97;;;0.73;;
30096;SDS011;16915;51.466;3.610;2022-10-16T16:23:36;6.72;;;0.95;;
30096;SDS011;16915;51.466;3.610;2022-10-16T16:28:38;3.55;;;0.80;;
30096;SDS011;16915;51.466;3.610;2022-10-16T16:31:04;1.35;;;0.70;;
30096;SDS011;16915;51.466;3.610;2022-10-16T16:33:31;4.50;;;0.80;;
30096;SDS011;16915;51.466;3.610;2022-10-16T16:36:00;1.98;;;0.82;;
30096;SDS011;16915;51.466;3.610;2022-10-16T16:38:27;1.48;;;0.82;;
30096;SDS011;16915;51.466;3.610;2022-10-16T16:40:54;1.67;;;0.80;;
30096;SDS011;16915;51.466;3.610;2022-10-16T16:43:25;2.50;;;0.80;;
30096;SDS011;16915;51.466;3.610;2022-10-16T16:45:52;3.45;;;0.98;;
30096;SDS011;16915;51.466;3.610;2022-10-16T16:48:18;3.47;;;0.65;;
30096;SDS011;16915;51.466;3.610;2022-10-16T16:50:44;2.67;;;0.60;;
30096;SDS011;16915;51.466;3.610;2022-10-16T16:53:10;2.95;;;0.60;;
30096;SDS011;16915;51.466;3.610;2022-10-16T16:55:36;3.15;;;0.82;;
30096;SDS011;16915;51.466;3.610;2022-10-16T16:58:02;4.50;;;0.75;;
30096;SDS011;16915;51.466;3.610;2022-10-16T17:00:29;3.30;;;0.98;;
30096;SDS011;16915;51.466;3.610;2022-10-16T17:02:55;1.48;;;0.60;;
30096;SDS011;16915;51.466;3.610;2022-10-16T17:05:22;2.97;;;0.55;;
30096;SDS011;16915;51.466;3.610;2022-10-16T17:07:52;2.90;;;0.63;;
30096;SDS011;16915;51.466;3.610;2022-10-16T17:10:17;1.88;;;0.80;;
30096;SDS011;16915;51.466;3.610;2022-10-16T17:12:43;2.22;;;1.05;;
30096;SDS011;16915;51.466;3.610;2022-10-16T17:15:09;3.95;;;0.55;;
30096;SDS011;16915;51.466;3.610;2022-10-16T17:17:35;2.83;;;0.65;;
30096;SDS011;16915;51.466;3.610;2022-10-16T17:20:01;2.20;;;0.82;;
30096;SDS011;16915;51.466;3.610;2022-10-16T17:22:27;2.75;;;1.00;;
30096;SDS011;16915;51.466;3.610;2022-10-16T17:24:53;2.58;;;0.70;;
30096;SDS011;16915;51.466;3.610;2022-10-16T17:27:19;5.60;;;0.68;;
30096;SDS011;16915;51.466;3.610;2022-10-16T17:29:45;2.92;;;1.00;;
30096;SDS011;16915;51.466;3.610;2022-10-16T17:32:14;1.00;;;0.70;;
30096;SDS011;16915;51.466;3.610;2022-10-16T17:34:40;2.08;;;1.10;;
30096;SDS011;16915;51.466;3.610;2022-10-16T17:37:06;3.25;;;0.85;;
30096;SDS011;16915;51.466;3.610;2022-10-16T17:39:34;1.48;;;0.77;;
30096;SDS011;16915;51.466;3.610;2022-10-16T17:42:03;4.65;;;0.85;;
30096;SDS011;16915;51.466;3.610;2022-10-16T17:44:28;1.45;;;0.57;;
30096;SDS011;16915;51.466;3.610;2022-10-16T17:46:54;2.10;;;0.77;;
30096;SDS011;16915;51.466;3.610;2022-10-16T17:49:22;3.85;;;0.75;;
30096;SDS011;16915;51.466;3.610;2022-10-16T17:51:51;1.30;;;0.70;;
30096;SDS011;16915;51.466;3.610;2022-10-16T17:54:18;2.58;;;0.70;;
30096;SDS011;16915;51.466;3.610;2022-10-16T17:56:44;1.75;;;0.60;;
30096;SDS011;16915;51.466;3.610;2022-10-16T17:59:23;4.15;;;0.90;;
30096;SDS011;16915;51.466;3.610;2022-10-16T18:01:49;8.85;;;1.50;;
30096;SDS011;16915;51.466;3.610;2022-10-16T18:04:16;2.88;;;1.10;;
30096;SDS011;16915;51.466;3.610;2022-10-16T18:06:44;2.63;;;0.70;;
30096;SDS011;16915;51.466;3.610;2022-10-16T18:09:12;2.20;;;1.00;;
30096;SDS011;16915;51.466;3.610;2022-10-16T18:11:39;0.93;;;0.70;;
30096;SDS011;16915;51.466;3.610;2022-10-16T18:14:05;4.45;;;0.93;;
30096;SDS011;16915;51.466;3.610;2022-10-16T18:16:32;1.33;;;0.80;;
30096;SDS011;16915;51.466;3.610;2022-10-16T18:19:00;2.95;;;0.98;;
30096;SDS011;16915;51.466;3.610;2022-10-16T18:21:54;4.35;;;1.35;;
30096;SDS011;16915;51.466;3.610;2022-10-16T18:24:20;2.63;;;1.00;;
30096;SDS011;16915;51.466;3.610;2022-10-16T18:26:49;5.57;;;0.98;;
30096;SDS011;16915;51.466;3.610;2022-10-16T18:29:44;5.90;;;1.02;;
30096;SDS011;16915;51.466;3.610;2022-10-16T18:32:16;2.20;;;0.85;;
30096;SDS011;16915;51.466;3.610;2022-10-16T18:35:25;2.13;;;0.98;;
30096;SDS011;16915;51.466;3.610;2022-10-16T18:37:57;3.00;;;1.15;;
30096;SDS011;16915;51.466;3.610;2022-10-16T18:41:05;2.63;;;1.08;;
30096;SDS011;16915;51.466;3.610;2022-10-16T18:43:31;2.97;;;1.40;;
30096;SDS011;16915;51.466;3.610;2022-10-16T18:46:07;2.47;;;1.05;;
30096;SDS011;16915;51.466;3.610;2022-10-16T18:48:54;2.67;;;0.95;;
30096;SDS011;16915;51.466;3.610;2022-10-16T18:53:57;4.50;;;1.23;;
30096;SDS011;16915;51.466;3.610;2022-10-16T18:57:14;2.90;;;1.20;;
30096;SDS011;16915;51.466;3.610;2022-10-16T19:00:29;6.05;;;1.52;;
30096;SDS011;16915;51.466;3.610;2022-10-16T19:03:01;5.63;;;1.50;;
30096;SDS011;16915;51.466;3.610;2022-10-16T19:05:57;3.65;;;1.38;;
30096;SDS011;16915;51.466;3.610;2022-10-16T19:09:01;3.63;;;1.38;;
30096;SDS011;16915;51.466;3.610;2022-10-16T19:11:42;3.42;;;1.75;;
30096;SDS011;16915;51.466;3.610;2022-10-16T19:17:01;4.18;;;1.40;;
30096;SDS011;16915;51.466;3.610;2022-10-16T19:19:38;3.13;;;1.10;;
30096;SDS011;16915;51.466;3.610;2022-10-16T19:22:18;2.88;;;1.25;;
30096;SDS011;16915;51.466;3.610;2022-10-16T19:25:20;7.57;;;3.05;;
30096;SDS011;16915;51.466;3.610;2022-10-16T19:27:52;4.65;;;1.50;;
30096;SDS011;16915;51.466;3.610;2022-10-16T19:30:37;2.15;;;1.45;;
30096;SDS011;16915;51.466;3.610;2022-10-16T19:33:42;2.60;;;1.48;;
30096;SDS011;16915;51.466;3.610;2022-10-16T19:36:56;5.20;;;1.60;;
30096;SDS011;16915;51.466;3.610;2022-10-16T19:39:40;3.55;;;1.45;;
30096;SDS011;16915;51.466;3.610;2022-10-16T19:42:12;2.88;;;1.50;;
30096;SDS011;16915;51.466;3.610;2022-10-16T19:44:39;3.58;;;2.00;;
30096;SDS011;16915;51.466;3.610;2022-10-16T19:47:24;3.05;;;2.13;;
30096;SDS011;16915;51.466;3.610;2022-10-16T19:50:32;3.30;;;2.30;;
30096;SDS011;16915;51.466;3.610;2022-10-16T19:53:27;7.60;;;2.65;;
30096;SDS011;16915;51.466;3.610;2022-10-16T19:56:20;4.78;;;3.10;;
30096;SDS011;16915;51.466;3.610;2022-10-16T19:59:14;4.30;;;2.20;;
30096;SDS011;16915;51.466;3.610;2022-10-16T20:02:03;5.97;;;2.90;;
30096;SDS011;16915;51.466;3.610;2022-10-16T20:04:36;4.28;;;3.17;;
30096;SDS011;16915;51.466;3.610;2022-10-16T20:07:20;3.28;;;2.60;;
30096;SDS011;16915;51.466;3.610;2022-10-16T20:09:47;7.45;;;2.97;;
30096;SDS011;16915;51.466;3.610;2022-10-16T20:12:23;3.03;;;2.75;;
30096;SDS011;16915;51.466;3.610;2022-10-16T20:14:49;8.90;;;3.03;;
30096;SDS011;16915;51.466;3.610;2022-10-16T20:17:15;4.63;;;2.70;;
30096;SDS011;16915;51.466;3.610;2022-10-16T20:19:49;8.02;;;3.22;;
30096;SDS011;16915;51.466;3.610;2022-10-16T20:22:19;4.75;;;2.80;;
30096;SDS011;16915;51.466;3.610;2022-10-16T20:25:28;5.68;;;2.88;;
30096;SDS011;16915;51.466;3.610;2022-10-16T20:28:59;3.53;;;2.92;;
30096;SDS011;16915;51.466;3.610;2022-10-16T20:32:11;4.32;;;2.95;;
30096;SDS011;16915;51.466;3.610;2022-10-16T20:34:53;4.72;;;2.78;;
30096;SDS011;16915;51.466;3.610;2022-10-16T20:38:26;5.82;;;3.10;;
30096;SDS011;16915;51.466;3.610;2022-10-16T20:42:01;5.82;;;2.95;;
30096;SDS011;16915;51.466;3.610;2022-10-16T20:48:09;4.75;;;3.00;;
30096;SDS011;16915;51.466;3.610;2022-10-16T20:51:54;6.22;;;3.10;;
30096;SDS011;16915;51.466;3.610;2022-10-16T20:55:27;3.38;;;2.63;;
30096;SDS011;16915;51.466;3.610;2022-10-16T20:59:04;4.78;;;2.80;;
30096;SDS011;16915;51.466;3.610;2022-10-16T21:02:50;3.38;;;2.97;;
30096;SDS011;16915;51.466;3.610;2022-10-16T21:06:21;8.60;;;3.00;;
30096;SDS011;16915;51.466;3.610;2022-10-16T21:13:26;5.80;;;2.88;;
30096;SDS011;16915;51.466;3.610;2022-10-16T21:16:01;7.38;;;3.45;;
30096;SDS011;16915;51.466;3.610;2022-10-16T21:19:28;3.28;;;2.97;;
30096;SDS011;16915;51.466;3.610;2022-10-16T21:23:13;3.03;;;2.70;;
30096;SDS011;16915;51.466;3.610;2022-10-16T21:26:20;5.25;;;3.15;;
30096;SDS011;16915;51.466;3.610;2022-10-16T21:30:04;3.70;;;2.65;;
30096;SDS011;16915;51.466;3.610;2022-10-16T21:44:27;2.78;;;2.58;;
30096;SDS011;16915;51.466;3.610;2022-10-16T21:47:28;4.72;;;2.75;;
30096;SDS011;16915;51.466;3.610;2022-10-16T21:51:25;7.38;;;4.38;;
30096;SDS011;16915;51.466;3.610;2022-10-16T21:58:13;2.97;;;2.67;;
30096;SDS011;16915;51.466;3.610;2022-10-16T22:01:13;4.38;;;2.67;;
30096;SDS011;16915;51.466;3.610;2022-10-16T22:03:55;3.00;;;2.80;;
30096;SDS011;16915;51.466;3.610;2022-10-16T22:06:27;4.50;;;2.90;;
30096;SDS011;16915;51.466;3.610;2022-10-16T22:09:44;6.90;;;3.08;;
30096;SDS011;16915;51.466;3.610;2022-10-16T22:12:49;4.10;;;3.38;;
30096;SDS011;16915;51.466;3.610;2022-10-16T22:15:59;4.85;;;3.00;;
30096;SDS011;16915;51.466;3.610;2022-10-16T22:19:02;5.82;;;3.85;;
30096;SDS011;16915;51.466;3.610;2022-10-16T22:22:30;3.83;;;3.20;;
30096;SDS011;16915;51.466;3.610;2022-10-16T22:25:25;3.40;;;3.10;;
30096;SDS011;16915;51.466;3.610;2022-10-16T22:28:36;6.68;;;3.83;;
30096;SDS011;16915;51.466;3.610;2022-10-16T22:31:12;3.58;;;3.00;;
30096;SDS011;16915;51.466;3.610;2022-10-16T22:34:25;4.28;;;3.85;;
30096;SDS011;16915;51.466;3.610;2022-10-16T22:37:26;4.05;;;3.38;;
30096;SDS011;16915;51.466;3.610;2022-10-16T22:40:43;3.30;;;3.00;;
30096;SDS011;16915;51.466;3.610;2022-10-16T22:43:37;5.75;;;3.58;;
30096;SDS011;16915;51.466;3.610;2022-10-16T22:46:31;4.75;;;3.40;;
30096;SDS011;16915;51.466;3.610;2022-10-16T22:49:43;6.45;;;4.30;;
30096;SDS011;16915;51.466;3.610;2022-10-16T22:53:26;6.57;;;4.32;;
30096;SDS011;16915;51.466;3.610;2022-10-16T22:56:29;8.00;;;3.80;;
30096;SDS011;16915;51.466;3.610;2022-10-16T22:59:36;5.18;;;3.58;;
30096;SDS011;16915;51.466;3.610;2022-10-16T23:02:30;6.43;;;3.83;;
30096;SDS011;16915;51.466;3.610;2022-10-16T23:06:02;4.88;;;3.53;;
30096;SDS011;16915;51.466;3.610;2022-10-16T23:12:37;4.18;;;3.40;;
30096;SDS011;16915;51.466;3.610;2022-10-16T23:16:23;3.67;;;3.35;;
30096;SDS011;16915;51.466;3.610;2022-10-16T23:19:21;4.30;;;3.90;;
30096;SDS011;16915;51.466;3.610;2022-10-16T23:22:33;6.63;;;4.18;;
30096;SDS011;16915;51.466;3.610;2022-10-16T23:25:08;5.53;;;3.88;;
30096;SDS011;16915;51.466;3.610;2022-10-16T23:28:28;7.82;;;4.38;;
30096;SDS011;16915;51.466;3.610;2022-10-16T23:31:38;4.82;;;4.32;;
30096;SDS011;16915;51.466;3.610;2022-10-16T23:35:07;8.25;;;4.40;;
30096;SDS011;16915;51.466;3.610;2022-10-16T23:38:11;8.07;;;4.90;;
30096;SDS011;16915;51.466;3.610;2022-10-16T23:40:51;5.35;;;4.85;;
30096;SDS011;16915;51.466;3.610;2022-10-16T23:43:44;5.80;;;5.10;;
30096;SDS011;16915;51.466;3.610;2022-10-16T23:46:19;6.75;;;4.88;;
30096;SDS011;16915;51.466;3.610;2022-10-16T23:49:14;5.70;;;4.53;;
30096;SDS011;16915;51.466;3.610;2022-10-16T23:52:31;5.95;;;5.18;;
30096;SDS011;16915;51.466;3.610;2022-10-16T23:55:09;8.77;;;6.05;;
30096;SDS011;16915;51.466;3.610;2022-10-16T23:58:28;5.95;;;5.35;;
